sensor_id;sensor_type;location;lat;lon;timestamp;P1;durP1;ratioP1;P2;durP2;ratioP2
42600;SDS011;28229;48.856;9.088;2024-03-07T00:00:09;38.83;;;24.37;;
42600;SDS011;28229;48.856;9.088;2024-03-07T00:02:48;38.23;;;24.37;;
42600;SDS011;28229;48.856;9.088;2024-03-07T00:05:20;38.57;;;24.37;;
42600;SDS011;28229;48.856;9.088;2024-03-07T00:07:50;37.33;;;24.07;;
42600;SDS011;28229;48.856;9.088;2024-03-07T00:10:16;37.30;;;24.40;;
42600;SDS011;28229;48.856;9.088;2024-03-07T00:12:43;40.17;;;24.20;;
42600;SDS011;28229;48.856;9.088;2024-03-07T00:15:11;38.33;;;23.90;;
42600;SDS011;28229;48.856;9.088;2024-03-07T00:17:38;36.67;;;23.77;;
42600;SDS011;28229;48.856;9.088;2024-03-07T00:20:05;38.67;;;23.83;;
42600;SDS011;28229;48.856;9.088;2024-03-07T00:22:43;36.27;;;23.40;;
42600;SDS011;28229;48.856;9.088;2024-03-07T00:25:09;35.33;;;23.17;;
42600;SDS011;28229;48.856;9.088;2024-03-07T00:27:37;39.90;;;24.87;;
42600;SDS011;28229;48.856;9.088;2024-03-07T00:30:04;36.77;;;23.40;;
42600;SDS011;28229;48.856;9.088;2024-03-07T00:32:35;35.67;;;23.47;;
42600;SDS011;28229;48.856;9.088;2024-03-07T00:35:02;39.10;;;24.20;;
42600;SDS011;28229;48.856;9.088;2024-03-07T00:37:31;39.57;;;26.10;;
42600;SDS011;28229;48.856;9.088;2024-03-07T00:39:57;41.73;;;25.53;;
42600;SDS011;28229;48.856;9.088;2024-03-07T00:42:24;40.90;;;26.63;;
42600;SDS011;28229;48.856;9.088;2024-03-07T00:44:50;43.40;;;26.77;;
42600;SDS011;28229;48.856;9.088;2024-03-07T00:47:16;44.60;;;28.33;;
42600;SDS011;28229;48.856;9.088;2024-03-07T00:49:45;42.97;;;27.07;;
42600;SDS011;28229;48.856;9.088;2024-03-07T00:52:15;40.13;;;26.57;;
42600;SDS011;28229;48.856;9.088;2024-03-07T00:54:42;38.97;;;26.23;;
42600;SDS011;28229;48.856;9.088;2024-03-07T00:57:08;42.03;;;27.70;;
42600;SDS011;28229;48.856;9.088;2024-03-07T00:59:34;40.20;;;26.43;;
42600;SDS011;28229;48.856;9.088;2024-03-07T01:02:01;42.53;;;26.87;;
42600;SDS011;28229;48.856;9.088;2024-03-07T01:04:27;39.33;;;25.90;;
42600;SDS011;28229;48.856;9.088;2024-03-07T01:06:57;42.20;;;27.07;;
42600;SDS011;28229;48.856;9.088;2024-03-07T01:09:26;40.87;;;26.80;;
42600;SDS011;28229;48.856;9.088;2024-03-07T01:11:54;39.47;;;26.40;;
42600;SDS011;28229;48.856;9.088;2024-03-07T01:14:21;38.67;;;26.20;;
42600;SDS011;28229;48.856;9.088;2024-03-07T01:16:48;40.27;;;27.13;;
42600;SDS011;28229;48.856;9.088;2024-03-07T01:19:14;39.93;;;26.90;;
42600;SDS011;28229;48.856;9.088;2024-03-07T01:21:40;43.03;;;27.50;;
42600;SDS011;28229;48.856;9.088;2024-03-07T01:24:06;40.50;;;26.70;;
42600;SDS011;28229;48.856;9.088;2024-03-07T01:26:33;42.53;;;26.53;;
42600;SDS011;28229;48.856;9.088;2024-03-07T01:29:01;38.37;;;26.63;;
42600;SDS011;28229;48.856;9.088;2024-03-07T01:31:28;36.67;;;25.80;;
42600;SDS011;28229;48.856;9.088;2024-03-07T01:33:54;38.80;;;26.00;;
42600;SDS011;28229;48.856;9.088;2024-03-07T01:36:20;42.40;;;27.83;;
42600;SDS011;28229;48.856;9.088;2024-03-07T01:38:47;40.57;;;27.17;;
42600;SDS011;28229;48.856;9.088;2024-03-07T01:41:13;39.63;;;25.83;;
42600;SDS011;28229;48.856;9.088;2024-03-07T01:43:41;42.13;;;28.23;;
42600;SDS011;28229;48.856;9.088;2024-03-07T01:46:07;44.83;;;28.33;;
42600;SDS011;28229;48.856;9.088;2024-03-07T01:48:34;43.93;;;27.50;;
42600;SDS011;28229;48.856;9.088;2024-03-07T01:51:00;41.73;;;26.97;;
42600;SDS011;28229;48.856;9.088;2024-03-07T01:53:30;44.13;;;28.13;;
42600;SDS011;28229;48.856;9.088;2024-03-07T01:55:57;41.30;;;27.43;;
42600;SDS011;28229;48.856;9.088;2024-03-07T01:58:25;43.13;;;28.03;;
42600;SDS011;28229;48.856;9.088;2024-03-07T02:00:51;45.33;;;29.87;;
42600;SDS011;28229;48.856;9.088;2024-03-07T02:03:17;40.40;;;27.20;;
42600;SDS011;28229;48.856;9.088;2024-03-07T02:05:44;41.00;;;28.83;;
42600;SDS011;28229;48.856;9.088;2024-03-07T02:08:11;42.37;;;28.73;;
42600;SDS011;28229;48.856;9.088;2024-03-07T02:10:37;41.93;;;27.87;;
42600;SDS011;28229;48.856;9.088;2024-03-07T02:13:05;42.77;;;27.20;;
42600;SDS011;28229;48.856;9.088;2024-03-07T02:15:31;42.07;;;27.53;;
42600;SDS011;28229;48.856;9.088;2024-03-07T02:17:58;44.90;;;28.90;;
42600;SDS011;28229;48.856;9.088;2024-03-07T02:20:25;44.30;;;29.30;;
42600;SDS011;28229;48.856;9.088;2024-03-07T02:22:52;43.47;;;28.37;;
42600;SDS011;28229;48.856;9.088;2024-03-07T02:25:18;44.50;;;29.23;;
42600;SDS011;28229;48.856;9.088;2024-03-07T02:27:51;42.33;;;28.10;;
42600;SDS011;28229;48.856;9.088;2024-03-07T02:30:17;41.77;;;26.73;;
42600;SDS011;28229;48.856;9.088;2024-03-07T02:32:45;42.47;;;28.43;;
42600;SDS011;28229;48.856;9.088;2024-03-07T02:35:18;43.60;;;27.93;;
42600;SDS011;28229;48.856;9.088;2024-03-07T02:37:44;41.97;;;27.93;;
42600;SDS011;28229;48.856;9.088;2024-03-07T02:40:12;44.13;;;28.60;;
42600;SDS011;28229;48.856;9.088;2024-03-07T02:42:38;38.93;;;27.23;;
42600;SDS011;28229;48.856;9.088;2024-03-07T02:45:04;41.57;;;28.50;;
42600;SDS011;28229;48.856;9.088;2024-03-07T02:47:32;46.17;;;29.00;;
42600;SDS011;28229;48.856;9.088;2024-03-07T02:49:59;43.93;;;26.77;;
42600;SDS011;28229;48.856;9.088;2024-03-07T02:52:25;42.33;;;27.53;;
42600;SDS011;28229;48.856;9.088;2024-03-07T02:54:51;41.63;;;27.70;;
42600;SDS011;28229;48.856;9.088;2024-03-07T02:57:17;42.37;;;28.50;;
42600;SDS011;28229;48.856;9.088;2024-03-07T02:59:43;40.40;;;26.33;;
42600;SDS011;28229;48.856;9.088;2024-03-07T03:02:09;40.27;;;26.23;;
42600;SDS011;28229;48.856;9.088;2024-03-07T03:04:35;37.37;;;25.40;;
42600;SDS011;28229;48.856;9.088;2024-03-07T03:07:01;43.07;;;26.90;;
42600;SDS011;28229;48.856;9.088;2024-03-07T03:09:28;43.57;;;27.33;;
42600;SDS011;28229;48.856;9.088;2024-03-07T03:11:54;42.73;;;26.90;;
42600;SDS011;28229;48.856;9.088;2024-03-07T03:14:20;42.43;;;27.10;;
42600;SDS011;28229;48.856;9.088;2024-03-07T03:16:47;41.73;;;26.43;;
42600;SDS011;28229;48.856;9.088;2024-03-07T03:19:13;39.57;;;26.93;;
42600;SDS011;28229;48.856;9.088;2024-03-07T03:21:39;43.40;;;27.53;;
42600;SDS011;28229;48.856;9.088;2024-03-07T03:24:06;40.77;;;26.77;;
42600;SDS011;28229;48.856;9.088;2024-03-07T03:26:33;43.70;;;27.10;;
42600;SDS011;28229;48.856;9.088;2024-03-07T03:29:01;41.10;;;26.07;;
42600;SDS011;28229;48.856;9.088;2024-03-07T03:31:28;36.10;;;25.47;;
42600;SDS011;28229;48.856;9.088;2024-03-07T03:33:54;40.97;;;26.33;;
42600;SDS011;28229;48.856;9.088;2024-03-07T03:36:21;41.77;;;26.33;;
42600;SDS011;28229;48.856;9.088;2024-03-07T03:38:47;39.63;;;25.27;;
42600;SDS011;28229;48.856;9.088;2024-03-07T03:41:16;40.30;;;25.17;;
42600;SDS011;28229;48.856;9.088;2024-03-07T03:43:43;37.60;;;24.60;;
42600;SDS011;28229;48.856;9.088;2024-03-07T03:46:12;41.67;;;26.10;;
42600;SDS011;28229;48.856;9.088;2024-03-07T03:48:39;43.77;;;27.13;;
42600;SDS011;28229;48.856;9.088;2024-03-07T03:51:06;41.87;;;25.40;;
42600;SDS011;28229;48.856;9.088;2024-03-07T03:53:36;43.13;;;26.70;;
42600;SDS011;28229;48.856;9.088;2024-03-07T03:56:05;42.27;;;25.93;;
42600;SDS011;28229;48.856;9.088;2024-03-07T03:58:31;42.73;;;26.43;;
42600;SDS011;28229;48.856;9.088;2024-03-07T04:00:58;40.93;;;26.27;;
42600;SDS011;28229;48.856;9.088;2024-03-07T04:03:24;44.60;;;27.13;;
42600;SDS011;28229;48.856;9.088;2024-03-07T04:05:50;42.90;;;25.57;;
42600;SDS011;28229;48.856;9.088;2024-03-07T04:08:17;42.17;;;26.70;;
42600;SDS011;28229;48.856;9.088;2024-03-07T04:10:46;42.53;;;27.30;;
42600;SDS011;28229;48.856;9.088;2024-03-07T04:13:12;43.40;;;27.27;;
42600;SDS011;28229;48.856;9.088;2024-03-07T04:15:39;40.87;;;26.00;;
42600;SDS011;28229;48.856;9.088;2024-03-07T04:18:05;44.50;;;27.17;;
42600;SDS011;28229;48.856;9.088;2024-03-07T04:20:31;49.33;;;29.63;;
42600;SDS011;28229;48.856;9.088;2024-03-07T04:22:57;40.93;;;27.40;;
42600;SDS011;28229;48.856;9.088;2024-03-07T04:25:24;43.40;;;25.90;;
42600;SDS011;28229;48.856;9.088;2024-03-07T04:27:51;46.10;;;28.27;;
42600;SDS011;28229;48.856;9.088;2024-03-07T04:30:17;42.60;;;26.73;;
42600;SDS011;28229;48.856;9.088;2024-03-07T04:32:43;44.07;;;26.13;;
42600;SDS011;28229;48.856;9.088;2024-03-07T04:35:09;43.00;;;27.00;;
42600;SDS011;28229;48.856;9.088;2024-03-07T04:37:36;46.53;;;28.43;;
42600;SDS011;28229;48.856;9.088;2024-03-07T04:40:04;45.03;;;26.70;;
42600;SDS011;28229;48.856;9.088;2024-03-07T04:42:30;47.73;;;28.77;;
42600;SDS011;28229;48.856;9.088;2024-03-07T04:44:56;50.33;;;28.90;;
42600;SDS011;28229;48.856;9.088;2024-03-07T04:47:23;46.80;;;28.27;;
42600;SDS011;28229;48.856;9.088;2024-03-07T04:49:50;44.77;;;28.50;;
42600;SDS011;28229;48.856;9.088;2024-03-07T04:52:16;43.73;;;27.43;;
42600;SDS011;28229;48.856;9.088;2024-03-07T04:54:42;47.83;;;28.90;;
42600;SDS011;28229;48.856;9.088;2024-03-07T04:57:08;46.00;;;28.30;;
42600;SDS011;28229;48.856;9.088;2024-03-07T04:59:37;48.33;;;29.00;;
42600;SDS011;28229;48.856;9.088;2024-03-07T05:02:03;44.23;;;26.83;;
42600;SDS011;28229;48.856;9.088;2024-03-07T05:04:29;47.03;;;28.27;;
42600;SDS011;28229;48.856;9.088;2024-03-07T05:06:56;45.57;;;27.53;;
42600;SDS011;28229;48.856;9.088;2024-03-07T05:09:23;43.03;;;26.93;;
42600;SDS011;28229;48.856;9.088;2024-03-07T05:11:51;41.43;;;26.23;;
42600;SDS011;28229;48.856;9.088;2024-03-07T05:14:17;45.47;;;27.07;;
42600;SDS011;28229;48.856;9.088;2024-03-07T05:16:44;44.00;;;27.20;;
42600;SDS011;28229;48.856;9.088;2024-03-07T05:19:10;42.53;;;26.47;;
42600;SDS011;28229;48.856;9.088;2024-03-07T05:21:36;42.90;;;26.33;;
42600;SDS011;28229;48.856;9.088;2024-03-07T05:24:08;45.70;;;28.80;;
42600;SDS011;28229;48.856;9.088;2024-03-07T05:26:35;44.07;;;26.67;;
42600;SDS011;28229;48.856;9.088;2024-03-07T05:29:07;45.10;;;26.87;;
42600;SDS011;28229;48.856;9.088;2024-03-07T05:31:34;42.83;;;26.00;;
42600;SDS011;28229;48.856;9.088;2024-03-07T05:34:01;40.73;;;25.83;;
42600;SDS011;28229;48.856;9.088;2024-03-07T05:36:34;47.27;;;27.23;;
42600;SDS011;28229;48.856;9.088;2024-03-07T05:39:01;43.20;;;26.00;;
42600;SDS011;28229;48.856;9.088;2024-03-07T05:41:37;44.83;;;26.23;;
42600;SDS011;28229;48.856;9.088;2024-03-07T05:44:03;45.27;;;25.93;;
42600;SDS011;28229;48.856;9.088;2024-03-07T05:46:36;43.77;;;26.67;;
42600;SDS011;28229;48.856;9.088;2024-03-07T05:49:15;45.43;;;26.53;;
42600;SDS011;28229;48.856;9.088;2024-03-07T05:51:46;41.10;;;26.80;;
42600;SDS011;28229;48.856;9.088;2024-03-07T05:54:13;43.57;;;27.33;;
42600;SDS011;28229;48.856;9.088;2024-03-07T05:56:40;44.40;;;26.80;;
42600;SDS011;28229;48.856;9.088;2024-03-07T05:59:06;42.53;;;26.70;;
42600;SDS011;28229;48.856;9.088;2024-03-07T06:01:36;44.50;;;26.90;;
42600;SDS011;28229;48.856;9.088;2024-03-07T06:04:03;40.27;;;25.73;;
42600;SDS011;28229;48.856;9.088;2024-03-07T06:06:33;40.47;;;25.10;;
42600;SDS011;28229;48.856;9.088;2024-03-07T06:09:01;40.47;;;25.37;;
42600;SDS011;28229;48.856;9.088;2024-03-07T06:11:34;44.83;;;27.23;;
42600;SDS011;28229;48.856;9.088;2024-03-07T06:14:05;43.47;;;26.57;;
42600;SDS011;28229;48.856;9.088;2024-03-07T06:16:38;43.97;;;26.90;;
42600;SDS011;28229;48.856;9.088;2024-03-07T06:19:05;47.53;;;26.43;;
42600;SDS011;28229;48.856;9.088;2024-03-07T06:21:38;47.37;;;26.63;;
42600;SDS011;28229;48.856;9.088;2024-03-07T06:24:06;40.40;;;25.07;;
42600;SDS011;28229;48.856;9.088;2024-03-07T06:26:34;43.13;;;26.73;;
42600;SDS011;28229;48.856;9.088;2024-03-07T06:29:14;49.17;;;27.77;;
42600;SDS011;28229;48.856;9.088;2024-03-07T06:31:44;44.03;;;26.33;;
42600;SDS011;28229;48.856;9.088;2024-03-07T06:34:15;42.07;;;25.43;;
42600;SDS011;28229;48.856;9.088;2024-03-07T06:36:42;45.87;;;25.97;;
42600;SDS011;28229;48.856;9.088;2024-03-07T06:39:08;55.53;;;30.57;;
42600;SDS011;28229;48.856;9.088;2024-03-07T06:41:38;55.60;;;29.70;;
42600;SDS011;28229;48.856;9.088;2024-03-07T06:44:05;53.33;;;29.07;;
42600;SDS011;28229;48.856;9.088;2024-03-07T06:46:33;46.40;;;28.33;;
42600;SDS011;28229;48.856;9.088;2024-03-07T06:49:00;53.20;;;30.17;;
42600;SDS011;28229;48.856;9.088;2024-03-07T06:51:26;47.87;;;29.10;;
42600;SDS011;28229;48.856;9.088;2024-03-07T06:53:53;46.13;;;28.33;;
42600;SDS011;28229;48.856;9.088;2024-03-07T06:56:19;42.57;;;27.27;;
42600;SDS011;28229;48.856;9.088;2024-03-07T06:58:47;41.93;;;27.13;;
42600;SDS011;28229;48.856;9.088;2024-03-07T07:01:14;40.87;;;25.77;;
42600;SDS011;28229;48.856;9.088;2024-03-07T07:03:41;40.03;;;26.00;;
42600;SDS011;28229;48.856;9.088;2024-03-07T07:06:11;39.57;;;25.53;;
42600;SDS011;28229;48.856;9.088;2024-03-07T07:08:37;42.43;;;26.77;;
42600;SDS011;28229;48.856;9.088;2024-03-07T07:11:04;41.13;;;26.07;;
42600;SDS011;28229;48.856;9.088;2024-03-07T07:13:30;40.47;;;25.47;;
42600;SDS011;28229;48.856;9.088;2024-03-07T07:15:58;38.17;;;24.70;;
42600;SDS011;28229;48.856;9.088;2024-03-07T07:18:26;38.93;;;24.27;;
42600;SDS011;28229;48.856;9.088;2024-03-07T07:20:53;34.77;;;23.57;;
42600;SDS011;28229;48.856;9.088;2024-03-07T07:23:19;41.83;;;25.20;;
42600;SDS011;28229;48.856;9.088;2024-03-07T07:25:46;36.23;;;24.23;;
42600;SDS011;28229;48.856;9.088;2024-03-07T07:28:12;37.33;;;25.07;;
42600;SDS011;28229;48.856;9.088;2024-03-07T07:30:39;39.10;;;25.37;;
42600;SDS011;28229;48.856;9.088;2024-03-07T07:33:05;38.27;;;25.43;;
42600;SDS011;28229;48.856;9.088;2024-03-07T07:35:32;37.57;;;24.50;;
42600;SDS011;28229;48.856;9.088;2024-03-07T07:38:00;38.00;;;24.40;;
42600;SDS011;28229;48.856;9.088;2024-03-07T07:40:26;35.47;;;22.60;;
42600;SDS011;28229;48.856;9.088;2024-03-07T07:42:54;38.10;;;24.70;;
42600;SDS011;28229;48.856;9.088;2024-03-07T07:45:21;33.57;;;21.87;;
42600;SDS011;28229;48.856;9.088;2024-03-07T07:47:52;29.20;;;20.93;;
42600;SDS011;28229;48.856;9.088;2024-03-07T07:50:22;29.13;;;19.93;;
42600;SDS011;28229;48.856;9.088;2024-03-07T07:52:50;30.20;;;20.13;;
42600;SDS011;28229;48.856;9.088;2024-03-07T07:55:28;26.80;;;19.53;;
42600;SDS011;28229;48.856;9.088;2024-03-07T07:57:58;28.23;;;19.93;;
42600;SDS011;28229;48.856;9.088;2024-03-07T08:00:26;26.73;;;18.43;;
42600;SDS011;28229;48.856;9.088;2024-03-07T08:03:01;28.40;;;18.20;;
42600;SDS011;28229;48.856;9.088;2024-03-07T08:05:31;31.40;;;20.20;;
42600;SDS011;28229;48.856;9.088;2024-03-07T08:07:59;26.70;;;20.73;;
42600;SDS011;28229;48.856;9.088;2024-03-07T08:10:29;27.57;;;20.43;;
42600;SDS011;28229;48.856;9.088;2024-03-07T08:12:56;29.13;;;21.33;;
42600;SDS011;28229;48.856;9.088;2024-03-07T08:15:24;34.23;;;23.33;;
42600;SDS011;28229;48.856;9.088;2024-03-07T08:17:53;28.23;;;20.10;;
42600;SDS011;28229;48.856;9.088;2024-03-07T08:20:23;28.13;;;19.27;;
42600;SDS011;28229;48.856;9.088;2024-03-07T08:22:51;28.40;;;19.57;;
42600;SDS011;28229;48.856;9.088;2024-03-07T08:25:19;26.33;;;18.17;;
42600;SDS011;28229;48.856;9.088;2024-03-07T08:27:47;24.80;;;18.27;;
42600;SDS011;28229;48.856;9.088;2024-03-07T08:30:14;26.23;;;18.90;;
42600;SDS011;28229;48.856;9.088;2024-03-07T08:32:45;26.40;;;18.07;;
42600;SDS011;28229;48.856;9.088;2024-03-07T08:35:12;25.97;;;18.40;;
42600;SDS011;28229;48.856;9.088;2024-03-07T08:37:39;26.47;;;19.30;;
42600;SDS011;28229;48.856;9.088;2024-03-07T08:40:06;23.67;;;17.80;;
42600;SDS011;28229;48.856;9.088;2024-03-07T08:42:38;26.53;;;18.40;;
42600;SDS011;28229;48.856;9.088;2024-03-07T08:45:05;25.10;;;18.97;;
42600;SDS011;28229;48.856;9.088;2024-03-07T08:47:34;25.13;;;18.07;;
42600;SDS011;28229;48.856;9.088;2024-03-07T08:50:01;25.03;;;18.77;;
42600;SDS011;28229;48.856;9.088;2024-03-07T08:52:32;24.30;;;17.60;;
42600;SDS011;28229;48.856;9.088;2024-03-07T08:54:58;23.73;;;17.57;;
42600;SDS011;28229;48.856;9.088;2024-03-07T08:57:24;27.07;;;19.30;;
42600;SDS011;28229;48.856;9.088;2024-03-07T08:59:50;26.13;;;18.23;;
42600;SDS011;28229;48.856;9.088;2024-03-07T09:02:16;25.10;;;18.23;;
42600;SDS011;28229;48.856;9.088;2024-03-07T09:04:43;27.50;;;19.57;;
42600;SDS011;28229;48.856;9.088;2024-03-07T09:07:09;25.63;;;18.77;;
42600;SDS011;28229;48.856;9.088;2024-03-07T09:09:36;23.43;;;18.57;;
42600;SDS011;28229;48.856;9.088;2024-03-07T09:12:02;26.90;;;19.50;;
42600;SDS011;28229;48.856;9.088;2024-03-07T09:14:28;27.13;;;18.73;;
42600;SDS011;28229;48.856;9.088;2024-03-07T09:16:55;27.50;;;19.03;;
42600;SDS011;28229;48.856;9.088;2024-03-07T09:19:22;27.40;;;19.30;;
42600;SDS011;28229;48.856;9.088;2024-03-07T09:21:53;27.60;;;19.60;;
42600;SDS011;28229;48.856;9.088;2024-03-07T09:24:20;29.10;;;20.43;;
42600;SDS011;28229;48.856;9.088;2024-03-07T09:26:49;26.83;;;19.43;;
42600;SDS011;28229;48.856;9.088;2024-03-07T09:29:22;28.20;;;20.57;;
42600;SDS011;28229;48.856;9.088;2024-03-07T09:31:49;26.83;;;20.07;;
42600;SDS011;28229;48.856;9.088;2024-03-07T09:34:17;27.37;;;20.23;;
42600;SDS011;28229;48.856;9.088;2024-03-07T09:36:44;27.57;;;19.53;;
42600;SDS011;28229;48.856;9.088;2024-03-07T09:39:14;29.60;;;19.93;;
42600;SDS011;28229;48.856;9.088;2024-03-07T09:41:41;26.83;;;20.23;;
42600;SDS011;28229;48.856;9.088;2024-03-07T09:44:14;29.63;;;20.30;;
42600;SDS011;28229;48.856;9.088;2024-03-07T09:46:49;28.47;;;19.70;;
42600;SDS011;28229;48.856;9.088;2024-03-07T09:49:16;27.90;;;20.50;;
42600;SDS011;28229;48.856;9.088;2024-03-07T09:51:43;26.80;;;19.97;;
42600;SDS011;28229;48.856;9.088;2024-03-07T09:54:10;29.43;;;19.97;;
42600;SDS011;28229;48.856;9.088;2024-03-07T09:56:36;28.93;;;20.73;;
42600;SDS011;28229;48.856;9.088;2024-03-07T09:59:03;29.07;;;21.53;;
42600;SDS011;28229;48.856;9.088;2024-03-07T10:01:34;30.60;;;21.40;;
42600;SDS011;28229;48.856;9.088;2024-03-07T10:04:02;30.00;;;20.27;;
42600;SDS011;28229;48.856;9.088;2024-03-07T10:06:37;28.10;;;19.57;;
42600;SDS011;28229;48.856;9.088;2024-03-07T10:09:05;29.73;;;20.47;;
42600;SDS011;28229;48.856;9.088;2024-03-07T10:11:33;26.70;;;19.87;;
42600;SDS011;28229;48.856;9.088;2024-03-07T10:14:03;28.30;;;20.80;;
42600;SDS011;28229;48.856;9.088;2024-03-07T10:16:30;29.17;;;20.10;;
42600;SDS011;28229;48.856;9.088;2024-03-07T10:18:58;27.87;;;19.70;;
42600;SDS011;28229;48.856;9.088;2024-03-07T10:21:26;27.30;;;20.33;;
42600;SDS011;28229;48.856;9.088;2024-03-07T10:24:05;28.93;;;19.50;;
42600;SDS011;28229;48.856;9.088;2024-03-07T10:26:39;25.80;;;19.03;;
42600;SDS011;28229;48.856;9.088;2024-03-07T10:29:06;27.10;;;20.03;;
42600;SDS011;28229;48.856;9.088;2024-03-07T10:31:36;23.27;;;17.60;;
42600;SDS011;28229;48.856;9.088;2024-03-07T10:34:05;24.00;;;18.07;;
42600;SDS011;28229;48.856;9.088;2024-03-07T10:36:31;26.33;;;18.80;;
42600;SDS011;28229;48.856;9.088;2024-03-07T10:39:01;26.13;;;18.87;;
42600;SDS011;28229;48.856;9.088;2024-03-07T10:41:28;23.27;;;17.53;;
42600;SDS011;28229;48.856;9.088;2024-03-07T10:44:02;25.70;;;18.37;;
42600;SDS011;28229;48.856;9.088;2024-03-07T10:46:33;26.13;;;18.70;;
42600;SDS011;28229;48.856;9.088;2024-03-07T10:49:01;25.50;;;19.10;;
42600;SDS011;28229;48.856;9.088;2024-03-07T10:51:40;26.37;;;20.30;;
42600;SDS011;28229;48.856;9.088;2024-03-07T10:54:13;25.80;;;19.30;;
42600;SDS011;28229;48.856;9.088;2024-03-07T10:59:34;26.57;;;19.07;;
42600;SDS011;28229;48.856;9.088;2024-03-07T11:04:53;26.43;;;20.10;;
42600;SDS011;28229;48.856;9.088;2024-03-07T11:07:21;26.73;;;19.20;;
42600;SDS011;28229;48.856;9.088;2024-03-07T11:09:49;26.80;;;19.53;;
42600;SDS011;28229;48.856;9.088;2024-03-07T11:12:18;27.73;;;19.67;;
42600;SDS011;28229;48.856;9.088;2024-03-07T11:14:47;27.57;;;19.27;;
42600;SDS011;28229;48.856;9.088;2024-03-07T11:17:16;28.30;;;20.10;;
42600;SDS011;28229;48.856;9.088;2024-03-07T11:19:46;28.50;;;20.73;;
42600;SDS011;28229;48.856;9.088;2024-03-07T11:22:29;29.70;;;21.30;;
42600;SDS011;28229;48.856;9.088;2024-03-07T11:25:03;32.07;;;21.73;;
42600;SDS011;28229;48.856;9.088;2024-03-07T11:27:33;32.30;;;22.10;;
42600;SDS011;28229;48.856;9.088;2024-03-07T11:30:06;31.43;;;23.37;;
42600;SDS011;28229;48.856;9.088;2024-03-07T11:32:34;31.60;;;22.13;;
42600;SDS011;28229;48.856;9.088;2024-03-07T11:35:31;29.60;;;21.50;;
42600;SDS011;28229;48.856;9.088;2024-03-07T11:38:01;33.00;;;21.73;;
42600;SDS011;28229;48.856;9.088;2024-03-07T11:42:56;31.77;;;22.33;;
42600;SDS011;28229;48.856;9.088;2024-03-07T11:45:26;32.90;;;22.73;;
42600;SDS011;28229;48.856;9.088;2024-03-07T11:47:55;29.07;;;21.00;;
42600;SDS011;28229;48.856;9.088;2024-03-07T11:50:39;31.73;;;21.87;;
42600;SDS011;28229;48.856;9.088;2024-03-07T11:53:06;30.80;;;21.97;;
42600;SDS011;28229;48.856;9.088;2024-03-07T11:55:37;30.10;;;20.93;;
42600;SDS011;28229;48.856;9.088;2024-03-07T11:58:10;33.73;;;22.43;;
42600;SDS011;28229;48.856;9.088;2024-03-07T12:00:44;33.13;;;22.70;;
42600;SDS011;28229;48.856;9.088;2024-03-07T12:03:13;29.43;;;20.93;;
42600;SDS011;28229;48.856;9.088;2024-03-07T12:05:44;31.47;;;21.47;;
42600;SDS011;28229;48.856;9.088;2024-03-07T12:08:13;31.30;;;21.93;;
42600;SDS011;28229;48.856;9.088;2024-03-07T12:10:40;29.37;;;20.23;;
42600;SDS011;28229;48.856;9.088;2024-03-07T12:13:11;30.30;;;20.87;;
42600;SDS011;28229;48.856;9.088;2024-03-07T12:15:39;30.47;;;21.57;;
42600;SDS011;28229;48.856;9.088;2024-03-07T12:18:05;29.37;;;22.00;;
42600;SDS011;28229;48.856;9.088;2024-03-07T12:20:36;30.47;;;22.00;;
42600;SDS011;28229;48.856;9.088;2024-03-07T12:23:03;32.63;;;21.90;;
42600;SDS011;28229;48.856;9.088;2024-03-07T12:25:34;28.60;;;20.67;;
42600;SDS011;28229;48.856;9.088;2024-03-07T12:28:06;29.47;;;20.87;;
42600;SDS011;28229;48.856;9.088;2024-03-07T12:33:12;28.00;;;21.03;;
42600;SDS011;28229;48.856;9.088;2024-03-07T12:35:43;28.37;;;21.83;;
42600;SDS011;28229;48.856;9.088;2024-03-07T12:38:12;28.53;;;21.63;;
42600;SDS011;28229;48.856;9.088;2024-03-07T12:40:40;32.00;;;22.10;;
42600;SDS011;28229;48.856;9.088;2024-03-07T12:43:16;31.50;;;21.93;;
42600;SDS011;28229;48.856;9.088;2024-03-07T12:45:52;29.83;;;21.30;;
42600;SDS011;28229;48.856;9.088;2024-03-07T12:48:24;28.60;;;20.77;;
42600;SDS011;28229;48.856;9.088;2024-03-07T12:50:51;30.23;;;20.87;;
42600;SDS011;28229;48.856;9.088;2024-03-07T12:53:21;29.93;;;20.97;;
42600;SDS011;28229;48.856;9.088;2024-03-07T12:55:54;29.27;;;21.37;;
42600;SDS011;28229;48.856;9.088;2024-03-07T12:58:21;29.33;;;20.77;;
42600;SDS011;28229;48.856;9.088;2024-03-07T13:00:55;31.47;;;21.37;;
42600;SDS011;28229;48.856;9.088;2024-03-07T13:03:24;28.57;;;20.53;;
42600;SDS011;28229;48.856;9.088;2024-03-07T13:05:56;27.20;;;21.00;;
42600;SDS011;28229;48.856;9.088;2024-03-07T13:08:27;30.27;;;22.10;;
42600;SDS011;28229;48.856;9.088;2024-03-07T13:10:56;28.63;;;21.27;;
42600;SDS011;28229;48.856;9.088;2024-03-07T13:13:24;26.70;;;20.53;;
42600;SDS011;28229;48.856;9.088;2024-03-07T13:15:51;33.70;;;22.80;;
42600;SDS011;28229;48.856;9.088;2024-03-07T13:18:20;29.93;;;22.03;;
42600;SDS011;28229;48.856;9.088;2024-03-07T13:20:46;29.53;;;21.57;;
42600;SDS011;28229;48.856;9.088;2024-03-07T13:23:14;28.43;;;21.97;;
42600;SDS011;28229;48.856;9.088;2024-03-07T13:25:40;31.43;;;22.00;;
42600;SDS011;28229;48.856;9.088;2024-03-07T13:28:13;29.17;;;21.37;;
42600;SDS011;28229;48.856;9.088;2024-03-07T13:30:43;27.93;;;20.47;;
42600;SDS011;28229;48.856;9.088;2024-03-07T13:33:10;26.70;;;19.97;;
42600;SDS011;28229;48.856;9.088;2024-03-07T13:35:39;28.77;;;21.23;;
42600;SDS011;28229;48.856;9.088;2024-03-07T13:38:06;26.67;;;20.20;;
42600;SDS011;28229;48.856;9.088;2024-03-07T13:40:34;30.50;;;20.60;;
42600;SDS011;28229;48.856;9.088;2024-03-07T13:43:06;29.20;;;20.23;;
42600;SDS011;28229;48.856;9.088;2024-03-07T13:45:34;26.20;;;20.23;;
42600;SDS011;28229;48.856;9.088;2024-03-07T13:48:10;25.47;;;20.20;;
42600;SDS011;28229;48.856;9.088;2024-03-07T13:50:39;28.10;;;20.43;;
42600;SDS011;28229;48.856;9.088;2024-03-07T13:53:10;26.53;;;20.30;;
42600;SDS011;28229;48.856;9.088;2024-03-07T13:55:41;31.63;;;21.00;;
42600;SDS011;28229;48.856;9.088;2024-03-07T13:58:32;29.00;;;21.33;;
42600;SDS011;28229;48.856;9.088;2024-03-07T14:07:27;30.40;;;21.70;;
42600;SDS011;28229;48.856;9.088;2024-03-07T14:28:15;27.33;;;20.53;;
42600;SDS011;28229;48.856;9.088;2024-03-07T14:30:55;30.10;;;21.80;;
42600;SDS011;28229;48.856;9.088;2024-03-07T14:33:26;30.20;;;22.83;;
42600;SDS011;28229;48.856;9.088;2024-03-07T14:36:01;34.07;;;23.70;;
42600;SDS011;28229;48.856;9.088;2024-03-07T14:38:43;29.83;;;22.50;;
42600;SDS011;28229;48.856;9.088;2024-03-07T14:41:15;29.77;;;22.50;;
42600;SDS011;28229;48.856;9.088;2024-03-07T14:43:43;30.40;;;22.57;;
42600;SDS011;28229;48.856;9.088;2024-03-07T14:46:11;30.57;;;21.90;;
42600;SDS011;28229;48.856;9.088;2024-03-07T14:48:39;29.70;;;21.33;;
42600;SDS011;28229;48.856;9.088;2024-03-07T14:51:06;31.60;;;23.20;;
42600;SDS011;28229;48.856;9.088;2024-03-07T14:53:34;29.30;;;22.90;;
42600;SDS011;28229;48.856;9.088;2024-03-07T14:56:00;32.53;;;22.50;;
42600;SDS011;28229;48.856;9.088;2024-03-07T14:58:26;33.27;;;21.70;;
42600;SDS011;28229;48.856;9.088;2024-03-07T15:00:52;30.93;;;22.70;;
42600;SDS011;28229;48.856;9.088;2024-03-07T15:03:20;35.47;;;22.90;;